sensor_id;sensor_type;location;lat;lon;timestamp;P1;durP1;ratioP1;P2;durP2;ratioP2
54428;SDS011;40337;52.978;6.310;2023-03-24T00:00:12;10.07;;;6.00;;
54428;SDS011;40337;52.978;6.310;2023-03-24T00:02:40;13.05;;;5.57;;
54428;SDS011;40337;52.978;6.310;2023-03-24T00:05:10;11.55;;;5.55;;
54428;SDS011;40337;52.978;6.310;2023-03-24T00:07:38;9.07;;;6.00;;
54428;SDS011;40337;52.978;6.310;2023-03-24T00:10:08;9.48;;;5.70;;
54428;SDS011;40337;52.978;6.310;2023-03-24T00:12:42;11.15;;;6.00;;
54428;SDS011;40337;52.978;6.310;2023-03-24T00:15:13;10.57;;;5.80;;
54428;SDS011;40337;52.978;6.310;2023-03-24T00:17:40;10.65;;;5.75;;
54428;SDS011;40337;52.978;6.310;2023-03-24T00:20:07;10.63;;;6.40;;
54428;SDS011;40337;52.978;6.310;2023-03-24T00:22:39;9.63;;;6.10;;
54428;SDS011;40337;52.978;6.310;2023-03-24T00:25:06;10.07;;;6.20;;
54428;SDS011;40337;52.978;6.310;2023-03-24T00:27:33;10.52;;;6.35;;
54428;SDS011;40337;52.978;6.310;2023-03-24T00:30:02;10.95;;;5.68;;
54428;SDS011;40337;52.978;6.310;2023-03-24T00:32:30;8.05;;;5.63;;
54428;SDS011;40337;52.978;6.310;2023-03-24T00:34:56;10.07;;;5.80;;
54428;SDS011;40337;52.978;6.310;2023-03-24T00:37:22;9.68;;;5.97;;
54428;SDS011;40337;52.978;6.310;2023-03-24T00:39:48;9.63;;;5.97;;
54428;SDS011;40337;52.978;6.310;2023-03-24T00:42:14;10.25;;;5.32;;
54428;SDS011;40337;52.978;6.310;2023-03-24T00:44:40;8.02;;;6.03;;
54428;SDS011;40337;52.978;6.310;2023-03-24T00:47:05;9.65;;;5.68;;
54428;SDS011;40337;52.978;6.310;2023-03-24T00:49:31;10.07;;;5.50;;
54428;SDS011;40337;52.978;6.310;2023-03-24T00:52:16;9.30;;;5.63;;
54428;SDS011;40337;52.978;6.310;2023-03-24T00:54:44;10.50;;;5.82;;
54428;SDS011;40337;52.978;6.310;2023-03-24T00:57:15;9.40;;;5.78;;
54428;SDS011;40337;52.978;6.310;2023-03-24T00:59:48;10.60;;;5.53;;
54428;SDS011;40337;52.978;6.310;2023-03-24T01:02:15;9.55;;;5.75;;
54428;SDS011;40337;52.978;6.310;2023-03-24T01:04:46;9.57;;;5.78;;
54428;SDS011;40337;52.978;6.310;2023-03-24T01:07:12;8.98;;;5.93;;
54428;SDS011;40337;52.978;6.310;2023-03-24T01:09:42;11.63;;;6.28;;
54428;SDS011;40337;52.978;6.310;2023-03-24T01:12:15;9.18;;;5.43;;
54428;SDS011;40337;52.978;6.310;2023-03-24T01:14:43;9.18;;;5.88;;
54428;SDS011;40337;52.978;6.310;2023-03-24T01:17:09;10.05;;;6.05;;
54428;SDS011;40337;52.978;6.310;2023-03-24T01:19:34;9.25;;;5.55;;
54428;SDS011;40337;52.978;6.310;2023-03-24T01:22:00;7.72;;;5.65;;
54428;SDS011;40337;52.978;6.310;2023-03-24T01:24:26;8.35;;;5.28;;
54428;SDS011;40337;52.978;6.310;2023-03-24T01:26:52;8.77;;;5.43;;
54428;SDS011;40337;52.978;6.310;2023-03-24T01:29:17;10.02;;;5.75;;
54428;SDS011;40337;52.978;6.310;2023-03-24T01:31:43;9.32;;;5.43;;
54428;SDS011;40337;52.978;6.310;2023-03-24T01:34:09;9.48;;;5.50;;
54428;SDS011;40337;52.978;6.310;2023-03-24T01:36:35;8.18;;;5.50;;
54428;SDS011;40337;52.978;6.310;2023-03-24T01:39:00;9.05;;;5.65;;
54428;SDS011;40337;52.978;6.310;2023-03-24T01:41:27;9.27;;;5.55;;
54428;SDS011;40337;52.978;6.310;2023-03-24T01:43:58;9.05;;;5.57;;
54428;SDS011;40337;52.978;6.310;2023-03-24T01:46:24;9.40;;;5.43;;
54428;SDS011;40337;52.978;6.310;2023-03-24T01:48:53;9.05;;;5.53;;
54428;SDS011;40337;52.978;6.310;2023-03-24T01:51:24;7.95;;;5.20;;
54428;SDS011;40337;52.978;6.310;2023-03-24T01:54:00;10.52;;;6.00;;
54428;SDS011;40337;52.978;6.310;2023-03-24T01:57:00;8.48;;;5.32;;
54428;SDS011;40337;52.978;6.310;2023-03-24T01:59:29;9.30;;;5.75;;
54428;SDS011;40337;52.978;6.310;2023-03-24T02:01:57;6.30;;;4.97;;
54428;SDS011;40337;52.978;6.310;2023-03-24T02:04:30;7.72;;;5.10;;
54428;SDS011;40337;52.978;6.310;2023-03-24T02:06:59;7.75;;;5.10;;
54428;SDS011;40337;52.978;6.310;2023-03-24T02:09:29;8.50;;;5.20;;
54428;SDS011;40337;52.978;6.310;2023-03-24T02:11:54;6.85;;;4.82;;
54428;SDS011;40337;52.978;6.310;2023-03-24T02:14:20;6.65;;;4.50;;
54428;SDS011;40337;52.978;6.310;2023-03-24T02:16:53;7.65;;;4.70;;
54428;SDS011;40337;52.978;6.310;2023-03-24T02:25:30;7.60;;;5.05;;
54428;SDS011;40337;52.978;6.310;2023-03-24T02:28:03;7.00;;;4.82;;
54428;SDS011;40337;52.978;6.310;2023-03-24T02:30:52;6.85;;;4.68;;
54428;SDS011;40337;52.978;6.310;2023-03-24T02:34:06;9.75;;;5.20;;
54428;SDS011;40337;52.978;6.310;2023-03-24T02:39:31;7.57;;;5.32;;
54428;SDS011;40337;52.978;6.310;2023-03-24T02:42:19;8.05;;;5.10;;
54428;SDS011;40337;52.978;6.310;2023-03-24T02:48:12;8.13;;;5.00;;
54428;SDS011;40337;52.978;6.310;2023-03-24T02:50:53;7.13;;;5.05;;
54428;SDS011;40337;52.978;6.310;2023-03-24T02:53:31;6.80;;;5.20;;
54428;SDS011;40337;52.978;6.310;2023-03-24T02:56:41;7.47;;;5.30;;
54428;SDS011;40337;52.978;6.310;2023-03-24T02:59:07;6.85;;;5.38;;
54428;SDS011;40337;52.978;6.310;2023-03-24T03:01:40;6.53;;;5.30;;
54428;SDS011;40337;52.978;6.310;2023-03-24T03:04:18;8.13;;;5.68;;
54428;SDS011;40337;52.978;6.310;2023-03-24T03:06:49;8.23;;;5.75;;
54428;SDS011;40337;52.978;6.310;2023-03-24T03:09:18;7.18;;;6.05;;
54428;SDS011;40337;52.978;6.310;2023-03-24T03:11:47;7.75;;;5.97;;
54428;SDS011;40337;52.978;6.310;2023-03-24T03:14:18;7.82;;;5.90;;
54428;SDS011;40337;52.978;6.310;2023-03-24T03:16:57;7.07;;;5.88;;
54428;SDS011;40337;52.978;6.310;2023-03-24T03:19:40;8.13;;;6.47;;
54428;SDS011;40337;52.978;6.310;2023-03-24T03:22:17;7.13;;;5.90;;
54428;SDS011;40337;52.978;6.310;2023-03-24T03:24:48;9.88;;;6.80;;
54428;SDS011;40337;52.978;6.310;2023-03-24T03:27:18;5.75;;;4.50;;
54428;SDS011;40337;52.978;6.310;2023-03-24T03:29:54;7.80;;;5.22;;
54428;SDS011;40337;52.978;6.310;2023-03-24T03:32:29;5.65;;;3.85;;
54428;SDS011;40337;52.978;6.310;2023-03-24T03:35:15;8.25;;;4.55;;
54428;SDS011;40337;52.978;6.310;2023-03-24T03:37:58;5.78;;;3.90;;
54428;SDS011;40337;52.978;6.310;2023-03-24T03:40:42;6.15;;;4.10;;
54428;SDS011;40337;52.978;6.310;2023-03-24T03:43:20;7.35;;;3.88;;
54428;SDS011;40337;52.978;6.310;2023-03-24T03:45:47;7.10;;;3.92;;
54428;SDS011;40337;52.978;6.310;2023-03-24T03:48:13;6.70;;;3.75;;
54428;SDS011;40337;52.978;6.310;2023-03-24T03:50:40;8.35;;;3.80;;
54428;SDS011;40337;52.978;6.310;2023-03-24T03:53:06;7.57;;;3.50;;
54428;SDS011;40337;52.978;6.310;2023-03-24T03:55:32;7.03;;;3.20;;
54428;SDS011;40337;52.978;6.310;2023-03-24T03:57:59;8.18;;;3.40;;
54428;SDS011;40337;52.978;6.310;2023-03-24T04:00:28;7.32;;;3.25;;
54428;SDS011;40337;52.978;6.310;2023-03-24T04:05:56;9.38;;;2.67;;
54428;SDS011;40337;52.978;6.310;2023-03-24T04:09:01;7.75;;;2.80;;
54428;SDS011;40337;52.978;6.310;2023-03-24T04:11:45;7.00;;;2.45;;
54428;SDS011;40337;52.978;6.310;2023-03-24T04:20:14;11.32;;;2.90;;
54428;SDS011;40337;52.978;6.310;2023-03-24T04:22:49;8.10;;;2.60;;
54428;SDS011;40337;52.978;6.310;2023-03-24T04:27:50;8.52;;;2.90;;
54428;SDS011;40337;52.978;6.310;2023-03-24T04:33:46;10.23;;;3.00;;
54428;SDS011;40337;52.978;6.310;2023-03-24T04:36:00;9.25;;;2.60;;
54428;SDS011;40337;52.978;6.310;2023-03-24T04:38:31;11.57;;;2.90;;
54428;SDS011;40337;52.978;6.310;2023-03-24T04:41:00;9.27;;;2.67;;
54428;SDS011;40337;52.978;6.310;2023-03-24T04:43:28;7.45;;;2.35;;
54428;SDS011;40337;52.978;6.310;2023-03-24T04:46:00;7.90;;;2.38;;
54428;SDS011;40337;52.978;6.310;2023-03-24T04:48:27;9.18;;;2.47;;
54428;SDS011;40337;52.978;6.310;2023-03-24T04:50:57;10.05;;;2.92;;
54428;SDS011;40337;52.978;6.310;2023-03-24T04:53:25;9.93;;;3.08;;
54428;SDS011;40337;52.978;6.310;2023-03-24T04:58:37;9.27;;;3.08;;
54428;SDS011;40337;52.978;6.310;2023-03-24T05:01:03;9.63;;;2.83;;
54428;SDS011;40337;52.978;6.310;2023-03-24T05:03:30;10.18;;;3.20;;
54428;SDS011;40337;52.978;6.310;2023-03-24T05:05:55;10.27;;;3.25;;
54428;SDS011;40337;52.978;6.310;2023-03-24T05:08:23;10.95;;;3.35;;
54428;SDS011;40337;52.978;6.310;2023-03-24T05:10:48;8.77;;;3.08;;
54428;SDS011;40337;52.978;6.310;2023-03-24T05:13:14;12.48;;;3.30;;
54428;SDS011;40337;52.978;6.310;2023-03-24T05:15:40;12.70;;;3.78;;
54428;SDS011;40337;52.978;6.310;2023-03-24T05:18:06;11.35;;;4.10;;
54428;SDS011;40337;52.978;6.310;2023-03-24T05:20:31;10.63;;;3.78;;
54428;SDS011;40337;52.978;6.310;2023-03-24T05:22:57;12.13;;;3.67;;
54428;SDS011;40337;52.978;6.310;2023-03-24T05:25:23;14.55;;;3.50;;
54428;SDS011;40337;52.978;6.310;2023-03-24T05:27:48;12.27;;;3.40;;
54428;SDS011;40337;52.978;6.310;2023-03-24T05:30:14;11.73;;;3.20;;
54428;SDS011;40337;52.978;6.310;2023-03-24T05:32:40;10.50;;;2.80;;
54428;SDS011;40337;52.978;6.310;2023-03-24T05:35:06;8.63;;;2.90;;
54428;SDS011;40337;52.978;6.310;2023-03-24T05:37:32;7.57;;;2.40;;
54428;SDS011;40337;52.978;6.310;2023-03-24T05:39:57;9.90;;;3.10;;
54428;SDS011;40337;52.978;6.310;2023-03-24T05:42:23;9.73;;;3.38;;
54428;SDS011;40337;52.978;6.310;2023-03-24T05:44:49;12.63;;;3.45;;
54428;SDS011;40337;52.978;6.310;2023-03-24T05:47:14;11.77;;;3.40;;
54428;SDS011;40337;52.978;6.310;2023-03-24T05:49:41;12.48;;;3.72;;
54428;SDS011;40337;52.978;6.310;2023-03-24T05:52:07;15.27;;;4.40;;
54428;SDS011;40337;52.978;6.310;2023-03-24T05:54:33;15.30;;;3.92;;
54428;SDS011;40337;52.978;6.310;2023-03-24T05:56:59;10.30;;;3.42;;
54428;SDS011;40337;52.978;6.310;2023-03-24T05:59:25;11.43;;;3.50;;
54428;SDS011;40337;52.978;6.310;2023-03-24T06:01:51;10.75;;;3.67;;
54428;SDS011;40337;52.978;6.310;2023-03-24T06:04:21;11.65;;;3.40;;
54428;SDS011;40337;52.978;6.310;2023-03-24T06:06:47;8.15;;;2.75;;
54428;SDS011;40337;52.978;6.310;2023-03-24T06:09:13;10.98;;;3.00;;
54428;SDS011;40337;52.978;6.310;2023-03-24T06:11:41;12.75;;;3.40;;
54428;SDS011;40337;52.978;6.310;2023-03-24T06:14:08;10.27;;;2.75;;
54428;SDS011;40337;52.978;6.310;2023-03-24T06:16:33;12.68;;;3.58;;
54428;SDS011;40337;52.978;6.310;2023-03-24T06:19:05;9.55;;;3.15;;
54428;SDS011;40337;52.978;6.310;2023-03-24T06:21:31;9.95;;;2.90;;
54428;SDS011;40337;52.978;6.310;2023-03-24T06:23:58;11.68;;;2.92;;
54428;SDS011;40337;52.978;6.310;2023-03-24T06:26:24;8.63;;;2.72;;
54428;SDS011;40337;52.978;6.310;2023-03-24T06:28:51;12.25;;;3.20;;
54428;SDS011;40337;52.978;6.310;2023-03-24T06:31:17;11.18;;;2.78;;
54428;SDS011;40337;52.978;6.310;2023-03-24T06:33:45;11.13;;;3.35;;
54428;SDS011;40337;52.978;6.310;2023-03-24T06:36:11;10.70;;;3.05;;
54428;SDS011;40337;52.978;6.310;2023-03-24T06:38:38;13.20;;;3.53;;
54428;SDS011;40337;52.978;6.310;2023-03-24T06:41:04;15.18;;;3.63;;
54428;SDS011;40337;52.978;6.310;2023-03-24T06:43:30;11.15;;;3.50;;
54428;SDS011;40337;52.978;6.310;2023-03-24T06:45:56;10.85;;;3.85;;
54428;SDS011;40337;52.978;6.310;2023-03-24T06:48:22;8.57;;;3.05;;
54428;SDS011;40337;52.978;6.310;2023-03-24T06:50:48;11.63;;;3.25;;
54428;SDS011;40337;52.978;6.310;2023-03-24T06:53:15;13.85;;;3.35;;
54428;SDS011;40337;52.978;6.310;2023-03-24T06:55:41;11.45;;;3.47;;
54428;SDS011;40337;52.978;6.310;2023-03-24T06:58:06;12.23;;;3.40;;
54428;SDS011;40337;52.978;6.310;2023-03-24T07:00:32;12.90;;;3.70;;
54428;SDS011;40337;52.978;6.310;2023-03-24T07:02:59;14.20;;;3.72;;
54428;SDS011;40337;52.978;6.310;2023-03-24T07:05:26;12.73;;;3.30;;
54428;SDS011;40337;52.978;6.310;2023-03-24T07:07:52;15.23;;;3.45;;
54428;SDS011;40337;52.978;6.310;2023-03-24T07:10:18;12.18;;;3.40;;
54428;SDS011;40337;52.978;6.310;2023-03-24T07:12:45;15.43;;;3.65;;
54428;SDS011;40337;52.978;6.310;2023-03-24T07:15:12;13.98;;;3.58;;
54428;SDS011;40337;52.978;6.310;2023-03-24T07:17:39;15.55;;;3.90;;
54428;SDS011;40337;52.978;6.310;2023-03-24T07:20:05;15.13;;;4.30;;
54428;SDS011;40337;52.978;6.310;2023-03-24T07:22:32;16.35;;;3.88;;
54428;SDS011;40337;52.978;6.310;2023-03-24T07:25:00;16.77;;;3.70;;
54428;SDS011;40337;52.978;6.310;2023-03-24T07:27:29;15.85;;;3.97;;
54428;SDS011;40337;52.978;6.310;2023-03-24T07:29:56;15.32;;;4.50;;
54428;SDS011;40337;52.978;6.310;2023-03-24T07:32:23;16.38;;;3.95;;
54428;SDS011;40337;52.978;6.310;2023-03-24T07:34:48;13.27;;;3.92;;
54428;SDS011;40337;52.978;6.310;2023-03-24T07:37:14;16.17;;;4.18;;
54428;SDS011;40337;52.978;6.310;2023-03-24T07:39:40;15.45;;;4.18;;
54428;SDS011;40337;52.978;6.310;2023-03-24T07:42:06;18.40;;;3.80;;
54428;SDS011;40337;52.978;6.310;2023-03-24T07:44:31;16.15;;;4.63;;
54428;SDS011;40337;52.978;6.310;2023-03-24T07:46:57;14.77;;;3.80;;
54428;SDS011;40337;52.978;6.310;2023-03-24T07:49:22;18.45;;;4.38;;
54428;SDS011;40337;52.978;6.310;2023-03-24T07:51:48;17.73;;;4.43;;
54428;SDS011;40337;52.978;6.310;2023-03-24T07:54:14;18.75;;;4.30;;
54428;SDS011;40337;52.978;6.310;2023-03-24T07:56:39;15.18;;;4.18;;
54428;SDS011;40337;52.978;6.310;2023-03-24T07:59:05;19.85;;;4.00;;
54428;SDS011;40337;52.978;6.310;2023-03-24T08:01:33;17.52;;;4.65;;
54428;SDS011;40337;52.978;6.310;2023-03-24T08:04:00;16.38;;;4.32;;
54428;SDS011;40337;52.978;6.310;2023-03-24T08:06:27;14.82;;;4.15;;
54428;SDS011;40337;52.978;6.310;2023-03-24T08:08:53;17.45;;;4.70;;
54428;SDS011;40337;52.978;6.310;2023-03-24T08:11:19;16.75;;;4.63;;
54428;SDS011;40337;52.978;6.310;2023-03-24T08:13:45;17.23;;;4.95;;
54428;SDS011;40337;52.978;6.310;2023-03-24T08:16:11;20.35;;;4.43;;
54428;SDS011;40337;52.978;6.310;2023-03-24T08:18:37;18.13;;;4.30;;
54428;SDS011;40337;52.978;6.310;2023-03-24T08:21:02;15.30;;;4.60;;
54428;SDS011;40337;52.978;6.310;2023-03-24T08:23:28;15.57;;;4.22;;
54428;SDS011;40337;52.978;6.310;2023-03-24T08:25:54;14.57;;;4.57;;
54428;SDS011;40337;52.978;6.310;2023-03-24T08:28:20;18.30;;;3.90;;
54428;SDS011;40337;52.978;6.310;2023-03-24T08:30:45;19.50;;;4.55;;
54428;SDS011;40337;52.978;6.310;2023-03-24T08:33:12;19.67;;;5.15;;
54428;SDS011;40337;52.978;6.310;2023-03-24T08:35:40;18.05;;;4.57;;
54428;SDS011;40337;52.978;6.310;2023-03-24T08:38:07;17.13;;;4.30;;
54428;SDS011;40337;52.978;6.310;2023-03-24T08:40:34;14.57;;;4.38;;
54428;SDS011;40337;52.978;6.310;2023-03-24T08:43:02;15.65;;;4.03;;
54428;SDS011;40337;52.978;6.310;2023-03-24T08:45:32;13.90;;;3.85;;
54428;SDS011;40337;52.978;6.310;2023-03-24T08:47:58;15.50;;;3.78;;
54428;SDS011;40337;52.978;6.310;2023-03-24T08:50:28;16.38;;;4.22;;
54428;SDS011;40337;52.978;6.310;2023-03-24T08:52:56;17.30;;;4.05;;
54428;SDS011;40337;52.978;6.310;2023-03-24T08:55:23;13.90;;;3.97;;
54428;SDS011;40337;52.978;6.310;2023-03-24T08:57:49;17.15;;;4.57;;
54428;SDS011;40337;52.978;6.310;2023-03-24T09:00:15;15.77;;;4.65;;
54428;SDS011;40337;52.978;6.310;2023-03-24T09:02:43;17.25;;;4.05;;
54428;SDS011;40337;52.978;6.310;2023-03-24T09:05:10;16.30;;;4.20;;
54428;SDS011;40337;52.978;6.310;2023-03-24T09:07:36;15.60;;;3.90;;
54428;SDS011;40337;52.978;6.310;2023-03-24T09:10:03;16.63;;;4.38;;
54428;SDS011;40337;52.978;6.310;2023-03-24T09:12:29;13.13;;;4.07;;
54428;SDS011;40337;52.978;6.310;2023-03-24T09:14:55;18.67;;;4.28;;
54428;SDS011;40337;52.978;6.310;2023-03-24T09:17:20;16.85;;;4.22;;
54428;SDS011;40337;52.978;6.310;2023-03-24T09:19:46;16.13;;;3.92;;
54428;SDS011;40337;52.978;6.310;2023-03-24T09:22:12;19.60;;;4.63;;
54428;SDS011;40337;52.978;6.310;2023-03-24T09:24:37;16.83;;;4.57;;
54428;SDS011;40337;52.978;6.310;2023-03-24T09:27:03;14.10;;;4.55;;
54428;SDS011;40337;52.978;6.310;2023-03-24T09:29:29;16.80;;;4.85;;
54428;SDS011;40337;52.978;6.310;2023-03-24T09:31:55;15.57;;;4.47;;
54428;SDS011;40337;52.978;6.310;2023-03-24T09:34:22;17.27;;;4.35;;
54428;SDS011;40337;52.978;6.310;2023-03-24T09:36:48;17.15;;;4.28;;
54428;SDS011;40337;52.978;6.310;2023-03-24T09:39:14;14.15;;;3.88;;
54428;SDS011;40337;52.978;6.310;2023-03-24T09:41:41;20.80;;;4.57;;
54428;SDS011;40337;52.978;6.310;2023-03-24T09:46:48;12.85;;;4.60;;
54428;SDS011;40337;52.978;6.310;2023-03-24T09:49:21;14.65;;;4.30;;
54428;SDS011;40337;52.978;6.310;2023-03-24T09:52:00;17.13;;;4.70;;
54428;SDS011;40337;52.978;6.310;2023-03-24T09:57:02;14.57;;;4.13;;
54428;SDS011;40337;52.978;6.310;2023-03-24T09:59:32;14.52;;;4.40;;
54428;SDS011;40337;52.978;6.310;2023-03-24T10:02:00;17.30;;;4.22;;
54428;SDS011;40337;52.978;6.310;2023-03-24T10:04:26;16.55;;;4.50;;
54428;SDS011;40337;52.978;6.310;2023-03-24T10:06:58;14.95;;;4.47;;
54428;SDS011;40337;52.978;6.310;2023-03-24T10:09:39;16.75;;;4.43;;
54428;SDS011;40337;52.978;6.310;2023-03-24T10:15:06;12.18;;;3.75;;
54428;SDS011;40337;52.978;6.310;2023-03-24T10:17:53;16.23;;;3.97;;
54428;SDS011;40337;52.978;6.310;2023-03-24T10:25:49;14.50;;;3.58;;
54428;SDS011;40337;52.978;6.310;2023-03-24T10:28:22;12.88;;;3.40;;
54428;SDS011;40337;52.978;6.310;2023-03-24T10:30:53;15.57;;;3.72;;
54428;SDS011;40337;52.978;6.310;2023-03-24T10:33:25;13.40;;;3.55;;
54428;SDS011;40337;52.978;6.310;2023-03-24T10:36:01;18.42;;;3.97;;
54428;SDS011;40337;52.978;6.310;2023-03-24T10:38:30;15.82;;;3.83;;
54428;SDS011;40337;52.978;6.310;2023-03-24T10:40:56;11.68;;;3.65;;
54428;SDS011;40337;52.978;6.310;2023-03-24T10:43:22;14.95;;;3.85;;
54428;SDS011;40337;52.978;6.310;2023-03-24T10:45:52;14.07;;;4.10;;
54428;SDS011;40337;52.978;6.310;2023-03-24T10:51:01;14.38;;;3.72;;
54428;SDS011;40337;52.978;6.310;2023-03-24T10:53:27;15.32;;;3.83;;
54428;SDS011;40337;52.978;6.310;2023-03-24T10:55:53;14.82;;;4.30;;
54428;SDS011;40337;52.978;6.310;2023-03-24T10:58:20;17.05;;;4.15;;
54428;SDS011;40337;52.978;6.310;2023-03-24T11:00:53;12.98;;;3.67;;
54428;SDS011;40337;52.978;6.310;2023-03-24T11:03:25;12.77;;;3.90;;
54428;SDS011;40337;52.978;6.310;2023-03-24T11:05:57;14.70;;;3.88;;
54428;SDS011;40337;52.978;6.310;2023-03-24T11:08:27;11.55;;;3.20;;
54428;SDS011;40337;52.978;6.310;2023-03-24T11:10:58;11.68;;;3.67;;
54428;SDS011;40337;52.978;6.310;2023-03-24T11:13:30;13.27;;;3.58;;
54428;SDS011;40337;52.978;6.310;2023-03-24T11:18:37;15.85;;;3.88;;
54428;SDS011;40337;52.978;6.310;2023-03-24T11:21:22;11.93;;;3.50;;
54428;SDS011;40337;52.978;6.310;2023-03-24T11:23:48;11.10;;;2.97;;
54428;SDS011;40337;52.978;6.310;2023-03-24T11:26:30;12.15;;;3.13;;
54428;SDS011;40337;52.978;6.310;2023-03-24T11:29:00;11.60;;;3.30;;
54428;SDS011;40337;52.978;6.310;2023-03-24T11:31:34;10.82;;;2.97;;
54428;SDS011;40337;52.978;6.310;2023-03-24T11:34:15;10.20;;;3.22;;
54428;SDS011;40337;52.978;6.310;2023-03-24T11:37:00;11.45;;;3.08;;
54428;SDS011;40337;52.978;6.310;2023-03-24T11:39:31;12.20;;;3.30;;
54428;SDS011;40337;52.978;6.310;2023-03-24T11:44:46;12.00;;;3.22;;
54428;SDS011;40337;52.978;6.310;2023-03-24T11:47:32;13.75;;;3.10;;
54428;SDS011;40337;52.978;6.310;2023-03-24T11:55:17;13.63;;;3.50;;
54428;SDS011;40337;52.978;6.310;2023-03-24T12:05:56;11.57;;;3.05;;
54428;SDS011;40337;52.978;6.310;2023-03-24T12:14:48;10.38;;;3.03;;
54428;SDS011;40337;52.978;6.310;2023-03-24T12:17:30;10.20;;;3.20;;
54428;SDS011;40337;52.978;6.310;2023-03-24T12:20:14;12.20;;;3.22;;
54428;SDS011;40337;52.978;6.310;2023-03-24T12:23:09;16.42;;;3.78;;
54428;SDS011;40337;52.978;6.310;2023-03-24T12:28:38;9.70;;;2.80;;
54428;SDS011;40337;52.978;6.310;2023-03-24T12:37:32;11.45;;;3.40;;
54428;SDS011;40337;52.978;6.310;2023-03-24T12:45:54;12.00;;;2.88;;
54428;SDS011;40337;52.978;6.310;2023-03-24T12:51:04;10.85;;;2.75;;
54428;SDS011;40337;52.978;6.310;2023-03-24T12:56:17;10.40;;;2.88;;
54428;SDS011;40337;52.978;6.310;2023-03-24T12:59:04;10.10;;;2.40;;
54428;SDS011;40337;52.978;6.310;2023-03-24T13:01:40;9.52;;;2.55;;
54428;SDS011;40337;52.978;6.310;2023-03-24T13:07:11;9.88;;;2.55;;
54428;SDS011;40337;52.978;6.310;2023-03-24T13:12:40;10.52;;;2.78;;
54428;SDS011;40337;52.978;6.310;2023-03-24T13:17:50;12.45;;;3.17;;
54428;SDS011;40337;52.978;6.310;2023-03-24T13:20:50;10.23;;;3.08;;
54428;SDS011;40337;52.978;6.310;2023-03-24T13:23:30;12.07;;;3.13;;
54428;SDS011;40337;52.978;6.310;2023-03-24T13:26:10;12.77;;;3.05;;
54428;SDS011;40337;52.978;6.310;2023-03-24T13:31:25;10.38;;;3.22;;
54428;SDS011;40337;52.978;6.310;2023-03-24T13:33:54;12.07;;;3.53;;
54428;SDS011;40337;52.978;6.310;2023-03-24T13:39:14;11.20;;;2.85;;
54428;SDS011;40337;52.978;6.310;2023-03-24T13:41:46;12.32;;;3.13;;
54428;SDS011;40337;52.978;6.310;2023-03-24T13:44:17;12.55;;;3.10;;
54428;SDS011;40337;52.978;6.310;2023-03-24T13:46:58;12.02;;;3.05;;
54428;SDS011;40337;52.978;6.310;2023-03-24T13:50:04;13.63;;;3.83;;
54428;SDS011;40337;52.978;6.310;2023-03-24T13:52:35;11.25;;;2.97;;
54428;SDS011;40337;52.978;6.310;2023-03-24T13:55:08;15.52;;;3.10;;
54428;SDS011;40337;52.978;6.310;2023-03-24T13:57:41;14.73;;;3.47;;
54428;SDS011;40337;52.978;6.310;2023-03-24T14:00:18;10.80;;;3.13;;
54428;SDS011;40337;52.978;6.310;2023-03-24T14:02:47;10.25;;;2.78;;
54428;SDS011;40337;52.978;6.310;2023-03-24T14:13:32;8.87;;;3.00;;
54428;SDS011;40337;52.978;6.310;2023-03-24T14:15:59;10.90;;;3.17;;
54428;SDS011;40337;52.978;6.310;2023-03-24T14:19:21;9.45;;;2.72;;
54428;SDS011;40337;52.978;6.310;2023-03-24T14:21:51;10.32;;;2.50;;
54428;SDS011;40337;52.978;6.310;2023-03-24T14:24:44;10.25;;;2.95;;
54428;SDS011;40337;52.978;6.310;2023-03-24T14:27:22;9.13;;;2.75;;
54428;SDS011;40337;52.978;6.310;2023-03-24T14:32:38;8.55;;;2.20;;
54428;SDS011;40337;52.978;6.310;2023-03-24T14:40:39;10.38;;;2.50;;
54428;SDS011;40337;52.978;6.310;2023-03-24T14:43:23;8.80;;;2.38;;
54428;SDS011;40337;52.978;6.310;2023-03-24T14:46:36;7.90;;;2.65;;
54428;SDS011;40337;52.978;6.310;2023-03-24T14:48:54;8.25;;;2.60;;
54428;SDS011;40337;52.978;6.310;2023-03-24T14:51:32;12.57;;;2.53;;
54428;SDS011;40337;52.978;6.310;2023-03-24T14:54:22;11.02;;;3.50;;
54428;SDS011;40337;52.978;6.310;2023-03-24T14:56:53;10.85;;;2.72;;
54428;SDS011;40337;52.978;6.310;2023-03-24T14:59:54;12.18;;;2.63;;
54428;SDS011;40337;52.978;6.310;2023-03-24T15:03:00;7.97;;;2.60;;
54428;SDS011;40337;52.978;6.310;2023-03-24T15:05:40;10.02;;;3.17;;
54428;SDS011;40337;52.978;6.310;2023-03-24T15:16:05;12.05;;;3.15;;
54428;SDS011;40337;52.978;6.310;2023-03-24T15:18:34;10.25;;;2.60;;
54428;SDS011;40337;52.978;6.310;2023-03-24T15:21:14;11.45;;;2.70;;
54428;SDS011;40337;52.978;6.310;2023-03-24T15:24:01;8.70;;;2.80;;
54428;SDS011;40337;52.978;6.310;2023-03-24T15:26:54;10.32;;;2.53;;
54428;SDS011;40337;52.978;6.310;2023-03-24T15:29:38;11.35;;;2.97;;
54428;SDS011;40337;52.978;6.310;2023-03-24T15:32:05;8.68;;;2.60;;
54428;SDS011;40337;52.978;6.310;2023-03-24T15:34:39;10.70;;;2.60;;
54428;SDS011;40337;52.978;6.310;2023-03-24T15:37:18;9.25;;;2.70;;
54428;SDS011;40337;52.978;6.310;2023-03-24T15:40:29;10.13;;;2.95;;
54428;SDS011;40337;52.978;6.310;2023-03-24T15:43:05;7.38;;;2.22;;
54428;SDS011;40337;52.978;6.310;2023-03-24T15:45:43;8.80;;;2.50;;
54428;SDS011;40337;52.978;6.310;2023-03-24T15:48:14;7.93;;;2.22;;
54428;SDS011;40337;52.978;6.310;2023-03-24T15:58:49;9.70;;;1.92;;
54428;SDS011;40337;52.978;6.310;2023-03-24T16:01:16;8.25;;;2.10;;
54428;SDS011;40337;52.978;6.310;2023-03-24T16:03:44;8.93;;;2.00;;
54428;SDS011;40337;52.978;6.310;2023-03-24T16:06:20;9.32;;;2.30;;
54428;SDS011;40337;52.978;6.310;2023-03-24T16:08:58;8.07;;;2.17;;
54428;SDS011;40337;52.978;6.310;2023-03-24T16:11:27;6.72;;;1.73;;
54428;SDS011;40337;52.978;6.310;2023-03-24T16:13:53;6.28;;;1.77;;
54428;SDS011;40337;52.978;6.310;2023-03-24T16:16:23;4.57;;;1.65;;
54428;SDS011;40337;52.978;6.310;2023-03-24T16:18:53;6.28;;;1.85;;
54428;SDS011;40337;52.978;6.310;2023-03-24T16:21:21;6.47;;;2.10;;
54428;SDS011;40337;52.978;6.310;2023-03-24T16:23:47;8.27;;;2.35;;
54428;SDS011;40337;52.978;6.310;2023-03-24T16:26:22;8.32;;;2.28;;
54428;SDS011;40337;52.978;6.310;2023-03-24T16:28:49;8.63;;;2.10;;
54428;SDS011;40337;52.978;6.310;2023-03-24T16:31:18;7.85;;;2.20;;
54428;SDS011;40337;52.978;6.310;2023-03-24T16:33:48;9.38;;;2.22;;
54428;SDS011;40337;52.978;6.310;2023-03-24T16:36:15;9.30;;;2.20;;
54428;SDS011;40337;52.978;6.310;2023-03-24T16:38:42;9.98;;;2.30;;
54428;SDS011;40337;52.978;6.310;2023-03-24T16:41:09;8.45;;;2.40;;
54428;SDS011;40337;52.978;6.310;2023-03-24T16:43:37;9.38;;;2.47;;
54428;SDS011;40337;52.978;6.310;2023-03-24T16:46:03;11.88;;;2.65;;
54428;SDS011;40337;52.978;6.310;2023-03-24T16:48:30;11.80;;;2.50;;
54428;SDS011;40337;52.978;6.310;2023-03-24T16:50:55;10.32;;;2.30;;
54428;SDS011;40337;52.978;6.310;2023-03-24T16:53:22;7.88;;;2.15;;
54428;SDS011;40337;52.978;6.310;2023-03-24T16:55:47;12.82;;;2.70;;
54428;SDS011;40337;52.978;6.310;2023-03-24T16:58:14;8.82;;;2.42;;
54428;SDS011;40337;52.978;6.310;2023-03-24T17:00:41;7.68;;;2.17;;
54428;SDS011;40337;52.978;6.310;2023-03-24T17:03:08;10.18;;;2.45;;
54428;SDS011;40337;52.978;6.310;2023-03-24T17:05:42;9.15;;;2.22;;
54428;SDS011;40337;52.978;6.310;2023-03-24T17:08:08;7.30;;;2.05;;
54428;SDS011;40337;52.978;6.310;2023-03-24T17:10:34;10.55;;;2.88;;
54428;SDS011;40337;52.978;6.310;2023-03-24T17:13:00;9.52;;;2.40;;
54428;SDS011;40337;52.978;6.310;2023-03-24T17:15:26;9.50;;;2.70;;
54428;SDS011;40337;52.978;6.310;2023-03-24T17:17:53;8.90;;;2.67;;
54428;SDS011;40337;52.978;6.310;2023-03-24T17:20:20;10.35;;;2.40;;